Time;durP1;ratioP1;P1;durP2;ratioP2;P2;SDS_P1;SDS_P2;PMS_P1;PMS_P2;Temp;Humidity;BMP_temperature;BMP_pressure;BME280_temperature;BME280_humidity;BME280_pressure;Samples;Min_cycle;Max_cycle;Signal;HPM_P1;HPM_P2
2022/08/17 00:02:20;;;;;;;15.93;11.77;;;;;;;22.02;72.05;100341.19;4971391;28;20050;-56
2022/08/17 00:04:54;;;;;;;14.70;11.68;;;;;;;21.99;71.88;100341.50;4976121;28;20069;-59
2022/08/17 00:07:21;;;;;;;15.30;11.10;;;;;;;21.96;72.26;100342.66;4970982;28;20080;-57
2022/08/17 00:09:49;;;;;;;15.02;11.02;;;;;;;21.94;72.38;100347.38;4969389;28;20059;-55
2022/08/17 00:12:16;;;;;;;15.57;12.02;;;;;;;21.93;72.06;100347.53;4967014;28;20078;-55
2022/08/17 00:15:04;;;;;;;14.77;11.25;;;;;;;21.91;72.16;100341.53;4965928;28;20082;-53
2022/08/17 00:17:34;;;;;;;13.80;10.70;;;;;;;21.88;72.53;100340.00;4970112;28;20061;-57
2022/08/17 00:20:03;;;;;;;16.17;11.52;;;;;;;21.87;73.09;100337.50;4969857;28;20054;-57
2022/08/17 00:22:30;;;;;;;17.70;11.50;;;;;;;21.84;72.76;100343.19;4972525;28;20065;-58
2022/08/17 00:25:06;;;;;;;22.52;11.90;;;;;;;21.84;73.15;100343.19;4965166;28;20059;-55
2022/08/17 00:27:34;;;;;;;16.35;11.77;;;;;;;21.81;73.61;100341.72;4971156;28;20062;-55
2022/08/17 00:30:02;;;;;;;16.27;11.27;;;;;;;21.81;73.89;100346.25;4969363;28;20046;-56
2022/08/17 00:32:36;;;;;;;17.38;11.85;;;;;;;21.80;73.72;100355.28;4971312;28;20085;-57
2022/08/17 00:35:26;;;;;;;16.38;11.57;;;;;;;21.74;74.28;100343.38;5018164;23;20058;-59
2022/08/17 00:37:54;;;;;;;18.73;12.98;;;;;;;21.73;74.47;100347.06;5010461;28;20061;-59
2022/08/17 00:40:21;;;;;;;19.67;13.27;;;;;;;21.74;74.24;100348.75;5002390;28;20048;-61
2022/08/17 00:42:52;;;;;;;17.45;12.77;;;;;;;21.74;74.52;100343.38;5008334;28;20065;-63
2022/08/17 00:45:20;;;;;;;16.83;12.30;;;;;;;21.73;74.29;100339.03;5003257;28;20054;-61
2022/08/17 00:47:48;;;;;;;19.77;13.10;;;;;;;21.71;74.97;100347.25;5010447;28;20061;-59
2022/08/17 00:50:17;;;;;;;14.60;11.82;;;;;;;21.70;74.72;100350.09;5008790;28;20052;-62
2022/08/17 00:52:51;;;;;;;17.67;12.25;;;;;;;21.68;75.04;100360.16;5006663;28;20050;-62
2022/08/17 00:55:18;;;;;;;22.60;13.73;;;;;;;21.65;75.56;100358.63;5009097;28;20054;-61
2022/08/17 00:57:48;;;;;;;14.88;12.50;;;;;;;21.61;74.89;100357.28;5009126;28;20138;-58
2022/08/17 01:00:27;;;;;;;16.45;12.20;;;;;;;21.59;75.64;100355.81;5009184;28;20506;-61
2022/08/17 01:03:01;;;;;;;17.10;14.18;;;;;;;21.56;75.43;100356.97;5004907;28;20429;-60
2022/08/17 01:05:30;;;;;;;21.23;14.00;;;;;;;21.56;75.80;100356.13;4992992;28;20064;-60
2022/08/17 01:07:59;;;;;;;19.10;14.30;;;;;;;21.55;75.38;100355.28;5010014;28;20053;-58
2022/08/17 01:10:31;;;;;;;20.70;13.45;;;;;;;21.55;75.58;100363.34;5008874;28;20057;-60
2022/08/17 01:13:20;;;;;;;20.65;13.82;;;;;;;21.52;76.45;100363.66;5004399;28;20049;-60
2022/08/17 01:16:10;;;;;;;19.60;13.07;;;;;;;21.51;75.87;100363.84;5007971;28;20061;-63
2022/08/17 01:18:38;;;;;;;17.00;13.80;;;;;;;21.49;76.75;100366.69;5009995;28;20054;-61
2022/08/17 01:21:10;;;;;;;15.52;12.65;;;;;;;21.47;77.03;100369.50;5001734;28;20482;-61
2022/08/17 01:23:37;;;;;;;16.33;13.68;;;;;;;21.46;77.12;100372.38;5004268;28;20422;-61
2022/08/17 01:26:05;;;;;;;21.98;14.48;;;;;;;21.43;77.32;100367.34;4997434;28;20046;-63
2022/08/17 01:28:33;;;;;;;20.42;13.85;;;;;;;21.42;76.48;100371.84;5004794;28;20054;-59
2022/08/17 01:31:21;;;;;;;17.23;14.07;;;;;;;21.43;76.68;100370.00;4994963;28;20044;-61
2022/08/17 01:33:48;;;;;;;16.38;13.10;;;;;;;21.42;76.52;100363.81;5009824;28;20073;-60
2022/08/17 01:36:15;;;;;;;18.70;14.75;;;;;;;21.43;76.54;100367.34;4989381;28;20064;-61
2022/08/17 01:38:43;;;;;;;20.05;14.40;;;;;;;21.43;76.37;100372.69;5009832;28;20058;-60
2022/08/17 01:41:13;;;;;;;17.60;13.98;;;;;;;21.42;76.62;100382.56;5005843;28;20049;-62
2022/08/17 01:44:03;;;;;;;17.02;13.40;;;;;;;21.39;77.96;100377.56;5002026;28;20061;-62
2022/08/17 01:46:34;;;;;;;14.52;12.80;;;;;;;21.36;77.27;100377.88;5007450;28;20068;-59
2022/08/17 01:49:05;;;;;;;17.25;12.95;;;;;;;21.34;76.61;100376.38;5010158;28;20507;-61
2022/08/17 01:51:32;;;;;;;17.67;12.57;;;;;;;21.32;77.24;100371.19;5005297;28;20056;-61
2022/08/17 01:54:04;;;;;;;17.23;12.82;;;;;;;21.32;78.12;100375.72;5009853;28;20050;-63
2022/08/17 01:56:33;;;;;;;17.67;13.88;;;;;;;21.30;77.67;100377.66;4998884;28;20065;-55
2022/08/17 01:59:00;;;;;;;15.63;12.55;;;;;;;21.29;77.26;100371.47;5009697;28;20053;-55
2022/08/17 02:01:29;;;;;;;15.35;13.15;;;;;;;21.29;77.57;100373.31;5008048;28;20073;-62
2022/08/17 02:03:57;;;;;;;19.20;13.20;;;;;;;21.28;77.46;100374.34;5008072;28;20053;-61
2022/08/17 02:06:32;;;;;;;18.95;14.20;;;;;;;21.27;77.22;100373.50;5003669;28;20057;-62
2022/08/17 02:09:19;;;;;;;16.73;13.68;;;;;;;21.26;77.53;100374.50;5001365;28;20380;-59
2022/08/17 02:11:52;;;;;;;14.48;12.57;;;;;;;21.26;77.91;100365.66;5008502;28;20499;-60
2022/08/17 02:14:20;;;;;;;18.83;14.02;;;;;;;21.23;78.61;100370.31;5009725;28;20544;-60
2022/08/17 02:16:48;;;;;;;21.40;13.27;;;;;;;21.22;78.61;100375.84;5007729;28;20453;-62
2022/08/17 02:19:16;;;;;;;19.85;14.07;;;;;;;21.18;78.38;100382.53;5006059;28;20066;-60
2022/08/17 02:21:45;;;;;;;14.43;12.85;;;;;;;21.17;78.83;100379.00;5002001;28;20057;-60
2022/08/17 02:24:18;;;;;;;15.90;12.68;;;;;;;21.15;78.85;100378.31;4994633;28;20112;-61
2022/08/17 02:27:05;;;;;;;16.73;13.70;;;;;;;21.14;79.38;100381.19;5004523;28;20060;-55
2022/08/17 02:29:32;;;;;;;16.63;13.02;;;;;;;21.11;79.48;100382.34;4995148;28;20046;-58
2022/08/17 02:32:00;;;;;;;17.73;12.07;;;;;;;21.10;80.01;100382.50;5001294;28;20050;-60
2022/08/17 02:34:27;;;;;;;21.98;13.07;;;;;;;21.07;79.83;100375.63;5009696;28;20050;-57
2022/08/17 02:36:55;;;;;;;16.70;12.57;;;;;;;21.05;79.98;100374.13;4996505;28;20057;-61
2022/08/17 02:39:22;;;;;;;16.50;12.23;;;;;;;21.02;80.50;100369.94;5003789;28;20064;-59
2022/08/17 02:41:49;;;;;;;19.08;12.70;;;;;;;21.01;80.37;100373.63;5006392;28;20049;-61
2022/08/17 02:44:16;;;;;;;20.67;13.63;;;;;;;20.99;80.52;100373.78;5006440;28;20058;-59
2022/08/17 02:47:03;;;;;;;18.08;11.85;;;;;;;20.97;80.70;100378.47;5000944;28;20057;-60
2022/08/17 02:49:30;;;;;;;16.70;13.13;;;;;;;20.95;80.76;100376.97;5002352;28;20050;-58
2022/08/17 02:51:58;;;;;;;14.23;11.85;;;;;;;20.92;80.54;100371.94;5007605;28;20137;-62
2022/08/17 02:54:25;;;;;;;16.50;12.02;;;;;;;20.90;81.03;100371.28;5004976;28;20046;-61
2022/08/17 02:57:09;;;;;;;22.55;12.45;;;;;;;20.88;81.47;100373.25;4998985;28;20064;-60
2022/08/17 02:59:37;;;;;;;16.95;11.60;;;;;;;20.86;81.35;100377.94;5012470;28;20058;-62
2022/08/17 03:02:09;;;;;;;14.93;11.90;;;;;;;20.85;81.35;100368.22;5011301;28;20050;-60
2022/08/17 03:04:37;;;;;;;17.33;13.20;;;;;;;20.82;81.83;100371.25;5012072;28;20061;-60
2022/08/17 03:07:05;;;;;;;16.52;12.60;;;;;;;20.80;81.66;100366.03;5010444;28;20057;-61
2022/08/17 03:09:32;;;;;;;15.13;12.43;;;;;;;20.81;82.65;100369.56;5012608;28;20049;-59
2022/08/17 03:12:07;;;;;;;17.85;12.02;;;;;;;20.78;83.12;100364.53;5011212;28;20042;-59
2022/08/17 03:14:39;;;;;;;;;;;;;;;20.77;82.88;100362.88;4999852;28;20050;-56
2022/08/17 03:17:11;;;;;;;15.50;11.55;;;;;;;20.71;82.91;100362.53;5012010;28;20000;-60
2022/08/17 03:19:43;;;;;;;15.63;11.18;;;;;;;20.70;83.28;100366.16;5005842;28;20454;-61
2022/08/17 03:22:10;;;;;;;16.88;13.50;;;;;;;20.68;83.49;100368.19;5012161;28;20042;-60
2022/08/17 03:24:58;;;;;;;13.57;10.52;;;;;;;20.66;83.11;100370.16;5010930;28;20049;-60
2022/08/17 03:27:25;;;;;;;15.10;12.27;;;;;;;20.65;83.12;100368.50;5006573;28;20042;-63
2022/08/17 03:29:53;;;;;;;17.88;11.48;;;;;;;20.64;82.97;100369.50;4994729;28;20514;-60
2022/08/17 03:32:20;;;;;;;15.75;11.52;;;;;;;20.63;83.07;100359.81;5011793;28;20049;-58
2022/08/17 03:34:47;;;;;;;18.25;11.60;;;;;;;20.62;82.75;100360.78;5009976;28;20414;-61
2022/08/17 03:37:14;;;;;;;18.13;11.98;;;;;;;20.62;82.61;100359.97;5011982;28;20062;-61
2022/08/17 03:39:41;;;;;;;16.25;12.15;;;;;;;20.60;82.55;100360.13;5008006;28;20053;-58
2022/08/17 03:42:12;;;;;;;17.95;12.15;;;;;;;20.60;83.30;100364.63;5011080;28;20053;-61
2022/08/17 03:44:59;;;;;;;23.23;12.55;;;;;;;20.58;83.56;100363.94;5010449;28;20045;-59
2022/08/17 03:58:32;;;;;;;;;;;;;;;20.60;83.33;100370.81;5006237;28;20096;-61
2022/08/17 04:00:59;;;;;;;17.88;11.10;;;;;;;20.60;82.94;100365.47;5009707;28;20271;-61
2022/08/17 04:03:27;;;;;;;15.82;10.88;;;;;;;20.62;83.05;100362.63;5011409;28;20053;-63
2022/08/17 04:05:54;;;;;;;16.65;11.63;;;;;;;20.64;82.95;100364.16;5002544;28;20494;-58
2022/08/17 04:08:21;;;;;;;11.85;10.55;;;;;;;20.67;82.63;100365.69;5010935;28;20130;-60
2022/08/17 04:10:48;;;;;;;16.80;11.32;;;;;;;20.68;82.46;100368.19;5008756;28;20054;-62
2022/08/17 04:13:16;;;;;;;13.60;10.75;;;;;;;20.71;82.58;100367.88;5009920;28;20045;-58
2022/08/17 04:15:52;;;;;;;14.77;10.98;;;;;;;20.72;82.10;100363.34;4992806;28;20054;-60
2022/08/17 04:18:19;;;;;;;13.80;10.93;;;;;;;20.73;82.07;100363.19;5011755;28;20056;-60
2022/08/17 04:20:46;;;;;;;14.93;10.25;;;;;;;20.76;82.13;100366.53;5009416;28;20057;-60
2022/08/17 04:23:16;;;;;;;14.90;11.48;;;;;;;20.79;81.60;100364.38;5011665;28;20053;-56
2022/08/17 04:25:47;;;;;;;14.38;11.65;;;;;;;20.83;81.62;100367.56;4997744;28;20115;-62
2022/08/17 04:28:15;;;;;;;12.15;10.63;;;;;;;20.85;81.57;100369.09;5011187;28;20568;-60
2022/08/17 04:30:43;;;;;;;13.88;10.35;;;;;;;20.88;81.15;100363.38;5009250;28;20057;-61
2022/08/17 04:33:14;;;;;;;13.65;11.60;;;;;;;20.91;80.85;100368.41;5010606;28;20065;-59
2022/08/17 04:35:44;;;;;;;15.40;11.85;;;;;;;20.97;80.61;100372.28;5006898;28;20057;-62
2022/08/17 04:38:14;;;;;;;14.35;11.10;;;;;;;21.02;80.28;100374.44;5010858;28;20049;-62
2022/08/17 04:43:29;;;;;;;14.63;12.02;;;;;;;21.11;80.42;100376.97;5003351;28;20058;-61
2022/08/17 04:45:59;;;;;;;12.98;10.95;;;;;;;21.18;79.66;100385.19;5004272;28;20053;-58
2022/08/17 04:48:31;;;;;;;17.42;10.20;;;;;;;21.22;79.53;100389.22;5010948;28;20224;-57
2022/08/17 04:51:14;;;;;;;13.80;10.75;;;;;;;21.29;79.34;100394.75;5008592;28;20139;-59
2022/08/17 04:53:43;;;;;;;14.43;10.30;;;;;;;21.33;78.59;100388.94;5008846;28;20050;-60
2022/08/17 04:56:11;;;;;;;12.68;11.35;;;;;;;21.40;77.90;100387.28;5009094;28;20564;-61
2022/08/17 04:58:47;;;;;;;12.18;10.45;;;;;;;21.47;77.82;100387.44;5010382;28;20056;-60
2022/08/17 05:01:17;;;;;;;15.70;10.38;;;;;;;21.55;77.12;100391.97;5008816;28;20107;-61
2022/08/17 05:03:52;;;;;;;16.17;10.70;;;;;;;21.62;76.83;100392.97;5006005;28;20100;-62
2022/08/17 05:06:19;;;;;;;13.73;10.55;;;;;;;21.70;76.73;100390.28;5008916;28;20140;-62
2022/08/17 05:08:46;;;;;;;15.52;12.00;;;;;;;21.80;75.82;100393.63;5010730;28;20057;-61
2022/08/17 05:11:13;;;;;;;12.40;10.73;;;;;;;21.88;75.92;100392.78;5007424;28;20053;-60
2022/08/17 05:13:41;;;;;;;15.20;10.48;;;;;;;21.96;75.18;100398.97;5009845;28;20060;-62
2022/08/17 05:16:08;;;;;;;14.90;10.88;;;;;;;22.02;74.52;100394.78;5009398;28;20041;-61
2022/08/17 05:18:37;;;;;;;14.05;10.07;;;;;;;22.10;74.16;100401.97;4994007;28;20053;-61
2022/08/17 05:21:05;;;;;;;15.20;10.45;;;;;;;22.18;73.74;100400.13;4988665;28;20053;-61
2022/08/17 05:23:33;;;;;;;18.33;10.80;;;;;;;22.27;73.36;100408.16;5010718;28;20545;-61
2022/08/17 05:26:11;;;;;;;11.45;9.57;;;;;;;22.35;72.85;100402.78;5008578;28;20050;-60
2022/08/17 05:28:57;;;;;;;14.38;9.00;;;;;;;22.43;72.34;100402.75;5003138;28;20076;-60
2022/08/17 05:31:29;;;;;;;14.43;11.18;;;;;;;22.49;71.50;100412.78;5008297;28;20058;-60
2022/08/17 05:33:57;;;;;;;12.73;9.98;;;;;;;22.55;71.62;100412.09;5009753;28;20053;-60
2022/08/17 05:36:24;;;;;;;11.95;9.90;;;;;;;22.61;71.04;100405.22;5007773;28;20065;-61
2022/08/17 05:39:12;;;;;;;15.10;12.15;;;;;;;22.68;70.85;100407.00;5006945;28;20482;-58
2022/08/17 05:41:45;;;;;;;14.80;10.55;;;;;;;22.77;70.19;100410.50;4989059;28;20062;-60
2022/08/17 05:44:12;;;;;;;12.55;10.20;;;;;;;22.85;69.63;100418.50;5009964;28;20054;-60
2022/08/17 05:46:42;;;;;;;14.43;11.02;;;;;;;22.96;69.48;100410.09;5007757;28;20050;-60
2022/08/17 05:49:10;;;;;;;19.50;11.40;;;;;;;23.07;68.95;100413.41;4999418;28;20050;-61
2022/08/17 05:51:40;;;;;;;12.40;9.63;;;;;;;23.17;68.34;100422.91;4995942;28;20100;-58
2022/08/17 05:54:26;;;;;;;13.05;10.88;;;;;;;23.27;67.95;100421.81;5009889;28;20045;-57
2022/08/17 05:57:24;;;;;;;13.30;10.07;;;;;;;23.35;67.50;100419.09;5007833;28;20065;-59
2022/08/17 05:59:57;;;;;;;15.32;10.45;;;;;;;23.41;67.32;100421.88;5007011;28;20056;-60
2022/08/17 06:02:43;;;;;;;14.60;9.25;;;;;;;23.51;67.11;100424.38;5002713;28;20056;-63
2022/08/17 06:05:26;;;;;;;16.13;10.15;;;;;;;23.60;66.40;100430.50;5007408;28;20049;-60
2022/08/17 06:08:02;;;;;;;17.50;9.95;;;;;;;23.69;65.89;100422.22;5000603;28;20062;-61
2022/08/17 06:10:47;;;;;;;15.35;10.85;;;;;;;23.79;65.33;100431.91;5000614;28;20049;-60
2022/08/17 06:13:35;;;;;;;16.23;10.53;;;;;;;23.90;64.53;100436.81;4999152;28;20042;-60
2022/08/17 06:16:21;;;;;;;17.42;10.77;;;;;;;23.99;63.76;100441.13;5000659;28;20061;-61
2022/08/17 06:19:12;;;;;;;19.55;11.23;;;;;;;24.08;63.07;100434.63;5001382;28;20525;-60
2022/08/17 06:21:43;;;;;;;21.55;10.98;;;;;;;24.21;62.26;100440.22;5007925;28;20057;-60
2022/08/17 06:24:35;;;;;;;20.45;10.02;;;;;;;24.29;61.61;100447.38;4998998;28;20054;-60
2022/08/17 06:27:26;;;;;;;22.75;10.77;;;;;;;24.28;61.17;100442.19;5000400;28;20045;-60
2022/08/17 06:30:08;;;;;;;19.13;11.35;;;;;;;24.42;60.09;100436.84;5007587;28;20800;-60
2022/08/17 06:32:42;;;;;;;11.52;8.77;;;;;;;24.55;59.17;100443.44;5000629;28;20050;-61
2022/08/17 06:35:12;;;;;;;15.15;9.55;;;;;;;24.61;58.91;100450.78;5020460;23;20062;-74
2022/08/17 06:37:58;;;;;;;11.63;8.95;;;;;;;24.79;58.44;100448.53;4970175;28;20058;-74
2022/08/17 06:40:46;;;;;;;13.68;9.00;;;;;;;24.94;58.03;100448.50;4992970;28;20437;-75
2022/08/17 06:43:23;;;;;;;20.13;9.30;;;;;;;25.07;57.40;100448.66;4973403;28;20042;-74
2022/08/17 06:46:02;;;;;;;10.93;8.88;;;;;;;25.18;56.94;100450.09;4999368;28;20236;-74
2022/08/17 06:48:48;;;;;;;12.15;9.00;;;;;;;25.29;56.10;100452.28;4964992;28;20142;-74
2022/08/17 06:51:24;;;;;;;;;;;;;;;25.40;56.02;100454.47;4973501;28;20067;-74
2022/08/17 06:54:21;;;;;;;12.35;8.95;;;;;;;25.55;55.71;100451.72;4959802;28;20436;-74
2022/08/17 06:57:02;;;;;;;10.45;8.70;;;;;;;25.68;55.66;100454.53;4989344;28;20055;-74
2022/08/17 06:59:53;;;;;;;15.40;9.38;;;;;;;25.82;55.12;100449.31;4993624;28;20057;-74
2022/08/17 07:02:48;;;;;;;15.98;8.95;;;;;;;25.94;54.41;100453.16;4961799;28;20504;-74
2022/08/17 07:05:32;;;;;;;15.45;9.95;;;;;;;26.10;54.15;100446.63;5004197;28;20496;-75
2022/08/17 07:08:15;;;;;;;15.68;8.82;;;;;;;26.21;53.64;100452.31;4963891;28;20137;-75
2022/08/17 07:10:49;;;;;;;14.75;9.23;;;;;;;26.37;52.96;100455.75;4963224;28;20054;-75
2022/08/17 07:13:53;;;;;;;13.70;8.07;;;;;;;26.51;52.05;100450.25;4978634;28;20116;-75
2022/08/17 07:16:35;;;;;;;10.77;6.47;;;;;;;26.67;52.13;100451.81;4994271;28;20042;-74
2022/08/17 07:19:03;;;;;;;10.23;6.78;;;;;;;26.82;51.13;100453.53;4992181;28;20161;-74
2022/08/17 07:21:40;;;;;;;10.90;7.45;;;;;;;26.91;49.84;100457.72;4993715;28;20081;-74
2022/08/17 07:24:28;;;;;;;8.50;7.05;;;;;;;27.00;50.07;100448.41;5005888;28;20050;-74
2022/08/17 07:27:11;;;;;;;7.35;6.00;;;;;;;27.11;49.38;100458.69;4978261;28;20046;-73
2022/08/17 07:29:45;;;;;;;16.30;8.15;;;;;;;27.12;47.90;100456.81;4983400;28;20086;-73
2022/08/17 07:32:17;;;;;;;10.38;7.50;;;;;;;27.01;48.73;100456.31;4994990;28;20481;-74
2022/08/17 07:35:11;;;;;;;11.95;7.43;;;;;;;27.11;48.92;100450.59;4985483;28;20124;-74
2022/08/17 07:37:54;;;;;;;13.25;6.97;;;;;;;27.16;48.92;100460.78;5000458;28;20058;-73
2022/08/17 07:40:25;;;;;;;10.18;6.30;;;;;;;27.24;48.23;100460.56;4979730;28;20066;-77
2022/08/17 07:43:13;;;;;;;12.02;6.63;;;;;;;27.40;47.90;100452.09;4998599;28;20065;-75
2022/08/17 07:48:53;;;;;;;8.65;5.97;;;;;;;27.68;46.92;100456.50;4998517;28;20085;-75
2022/08/17 07:51:28;;;;;;;9.40;5.97;;;;;;;27.72;46.31;100463.22;4982205;28;20054;-73
2022/08/17 07:54:18;;;;;;;;;;;;;;;27.84;46.40;100466.16;4987756;28;20042;-73
2022/08/17 07:56:52;;;;;;;7.80;5.13;;;;;;;28.00;46.05;100463.00;4976530;28;19989;-74
2022/08/17 07:59:23;;;;;;;11.48;5.43;;;;;;;28.07;45.60;100465.72;4994758;28;20046;-74
2022/08/17 08:02:06;;;;;;;10.88;5.05;;;;;;;28.17;45.41;100466.97;4976105;28;20166;-74
2022/08/17 08:04:41;;;;;;;9.73;6.10;;;;;;;28.27;44.84;100469.25;4988360;28;20049;-74
2022/08/17 08:07:33;;;;;;;8.23;5.38;;;;;;;28.43;44.65;100468.84;4992231;28;20122;-74
2022/08/17 08:10:03;;;;;;;12.50;4.80;;;;;;;28.51;43.50;100465.09;4990780;28;20085;-74
2022/08/17 08:12:37;;;;;;;7.65;4.82;;;;;;;28.55;43.75;100465.47;4993473;28;20054;-74
2022/08/17 08:15:24;;;;;;;9.50;4.65;;;;;;;28.63;42.49;100470.66;4974400;28;20050;-74
2022/08/17 08:17:54;;;;;;;8.10;5.10;;;;;;;28.72;43.24;100466.69;4976325;28;20143;-74
2022/08/17 08:20:45;;;;;;;9.40;5.68;;;;;;;28.72;43.17;100467.50;4992006;28;20050;-73
2022/08/17 08:23:40;;;;;;;8.50;4.25;;;;;;;28.82;43.82;100469.78;4986442;28;20089;-76
2022/08/17 08:26:34;;;;;;;7.50;5.10;;;;;;;28.83;43.18;100474.16;4983867;28;20062;-74
2022/08/17 08:29:08;;;;;;;7.40;4.43;;;;;;;28.89;43.58;100477.88;4971822;28;20142;-76
2022/08/17 08:32:02;;;;;;;9.52;5.18;;;;;;;29.00;42.18;100475.38;4971584;28;20068;-75
2022/08/17 08:34:43;;;;;;;5.37;4.00;;;;;;;29.09;41.91;100483.25;4956033;28;1168952;-74
2022/08/17 08:37:40;;;;;;;4.32;3.75;;;;;;;29.16;41.12;100479.47;4962747;28;20587;-74
2022/08/17 08:40:30;;;;;;;7.47;4.40;;;;;;;29.20;40.37;100477.16;4980845;28;20532;-74
2022/08/17 08:43:21;;;;;;;5.80;4.25;;;;;;;29.30;39.97;100480.22;4991515;28;20050;-75
2022/08/17 08:45:56;;;;;;;9.40;4.40;;;;;;;29.41;40.54;100470.59;4991410;28;20054;-74
2022/08/17 08:48:50;;;;;;;6.65;4.25;;;;;;;29.54;40.23;100470.50;4992807;28;20057;-74
2022/08/17 08:51:30;;;;;;;8.27;4.80;;;;;;;29.73;40.02;100469.56;4980560;28;20130;-74
2022/08/17 08:54:11;;;;;;;4.78;4.03;;;;;;;29.87;39.74;100472.19;5005466;28;20547;-74
2022/08/17 08:56:49;;;;;;;7.63;4.00;;;;;;;29.95;39.95;100466.50;4996684;28;20068;-74
2022/08/17 08:59:39;;;;;;;3.88;3.47;;;;;;;30.13;39.52;100469.25;4985628;28;20046;-74
2022/08/17 09:02:28;;;;;;;7.70;4.20;;;;;;;30.21;39.34;100473.56;4991050;28;20145;-73
2022/08/17 09:05:02;;;;;;;6.57;3.60;;;;;;;30.28;39.27;100477.06;4985779;28;20043;-74
2022/08/17 09:08:04;;;;;;;11.70;3.90;;;;;;;30.42;38.63;100469.63;4978994;28;20054;-75
2022/08/17 09:11:01;;;;;;;6.40;4.35;;;;;;;30.61;37.35;100465.84;4980727;28;20067;-75
2022/08/17 09:13:52;;;;;;;6.22;3.03;;;;;;;30.67;35.52;100475.00;4999455;28;20048;-74
2022/08/17 09:16:33;;;;;;;6.63;3.47;;;;;;;30.66;35.66;100468.72;4999152;28;20059;-75
2022/08/17 09:19:11;;;;;;;6.18;3.15;;;;;;;30.76;36.73;100460.94;4976867;28;20070;-74
2022/08/17 09:21:59;;;;;;;5.68;3.20;;;;;;;30.89;36.04;100464.53;4977765;28;20058;-75
2022/08/17 09:24:34;;;;;;;7.00;4.35;;;;;;;31.06;35.70;100465.56;4983467;28;20047;-73
2022/08/17 09:27:45;;;;;;;7.57;3.30;;;;;;;31.20;35.41;100467.03;4978417;28;20069;-74
2022/08/17 09:30:13;;;;;;;8.32;3.88;;;;;;;31.33;35.77;100465.25;4960476;28;20054;-74
2022/08/17 09:32:44;;;;;;;4.13;3.15;;;;;;;31.43;34.90;100457.34;4950137;28;20077;-73
2022/08/17 09:35:18;;;;;;;3.95;2.88;;;;;;;31.62;34.88;100463.56;4961272;28;20145;-74
2022/08/17 09:37:51;;;;;;;8.55;3.05;;;;;;;31.75;33.81;100463.38;5000526;28;20406;-74
2022/08/17 09:40:36;;;;;;;4.32;3.03;;;;;;;31.71;33.50;100462.19;4990534;28;20042;-74
2022/08/17 09:43:23;;;;;;;5.15;3.13;;;;;;;31.76;33.50;100460.41;4980463;28;20046;-73
2022/08/17 09:45:55;;;;;;;6.75;2.78;;;;;;;32.03;33.22;100460.00;4973214;28;20432;-74
2022/08/17 09:48:40;;;;;;;8.95;4.45;;;;;;;32.02;32.68;100461.06;4995635;28;20054;-75
2022/08/17 09:51:23;;;;;;;4.65;2.90;;;;;;;32.26;32.77;100475.53;4978075;28;20137;-74
2022/08/17 09:53:51;;;;;;;5.82;3.90;;;;;;;32.53;31.82;100470.44;4981350;28;20058;-73
2022/08/17 09:56:36;;;;;;;4.43;3.15;;;;;;;32.72;32.07;100471.94;4981398;28;20046;-74
2022/08/17 09:59:31;;;;;;;3.78;2.83;;;;;;;32.96;31.88;100461.84;5001483;28;20093;-74
2022/08/17 10:02:25;;;;;;;10.55;2.55;;;;;;;33.14;32.03;100454.53;4961072;28;20070;-74
2022/08/17 10:05:20;;;;;;;5.35;3.67;;;;;;;33.34;31.95;100452.19;4987656;28;20038;-74
2022/08/17 10:08:08;;;;;;;6.35;2.13;;;;;;;33.51;31.14;100457.72;4972866;28;20386;-74
2022/08/17 10:10:46;;;;;;;6.97;3.45;;;;;;;33.39;30.92;100455.03;5001054;28;20053;-74
2022/08/17 10:13:50;;;;;;;4.35;3.00;;;;;;;33.54;30.08;100454.50;4982771;28;20173;-73
2022/08/17 10:16:37;;;;;;;5.68;3.50;;;;;;;33.60;30.37;100449.97;4996221;28;20038;-73
2022/08/17 10:19:04;;;;;;;;;;;;;;;33.70;29.75;100445.50;4989389;28;20517;-74
2022/08/17 10:27:54;;;;;;;3.00;2.33;;;;;;;34.04;28.89;100456.44;4995677;28;20050;-74
2022/08/17 10:30:25;;;;;;;3.63;2.60;;;;;;;33.96;28.01;100459.63;4999354;28;20056;-73
2022/08/17 10:33:00;;;;;;;4.03;2.60;;;;;;;33.94;28.61;100457.06;4967846;28;20052;-74
2022/08/17 10:35:35;;;;;;;4.13;2.50;;;;;;;33.98;29.23;100458.28;4964568;28;20056;-75
2022/08/17 10:38:36;;;;;;;5.13;3.55;;;;;;;34.00;29.58;100455.31;5002887;28;20057;-74
2022/08/17 10:41:29;;;;;;;3.38;2.97;;;;;;;34.26;29.22;100461.97;4948357;28;20142;-75
2022/08/17 10:44:05;;;;;;;8.43;3.30;;;;;;;34.22;27.28;100458.06;4995825;28;20058;-75
2022/08/17 10:47:08;;;;;;;3.30;3.00;;;;;;;34.31;28.13;100453.00;4991946;28;20059;-75
2022/08/17 10:49:52;;;;;;;5.10;2.72;;;;;;;34.35;28.55;100451.44;4983181;28;20065;-74
2022/08/17 10:52:26;;;;;;;6.22;3.25;;;;;;;34.04;28.63;100461.06;4980643;28;20491;-74
2022/08/17 10:54:55;;;;;;;10.40;3.60;;;;;;;33.78;28.33;100457.09;5001942;28;20058;-73
2022/08/17 10:57:30;;;;;;;5.50;2.92;;;;;;;33.98;28.75;100458.28;4997839;28;20038;-75
2022/08/17 11:00:14;;;;;;;7.20;3.47;;;;;;;33.92;28.43;100459.25;4992913;28;20065;-75
2022/08/17 11:02:50;;;;;;;6.97;3.13;;;;;;;33.75;27.67;100455.69;5003385;28;20152;-74
2022/08/17 11:05:17;;;;;;;6.82;3.28;;;;;;;33.35;29.13;100453.84;4994851;28;20084;-74
2022/08/17 11:08:06;;;;;;;4.38;2.70;;;;;;;33.55;28.02;100458.03;4977879;28;20464;-74
2022/08/17 11:11:11;;;;;;;6.47;3.78;;;;;;;33.86;28.32;100443.00;4997720;28;20084;-75
2022/08/17 11:13:56;;;;;;;5.55;2.80;;;;;;;34.12;27.97;100436.91;4991740;28;20109;-74
2022/08/17 11:16:49;;;;;;;4.85;3.47;;;;;;;34.46;28.26;100432.22;4997140;28;20045;-75
2022/08/17 11:19:33;;;;;;;8.02;2.90;;;;;;;34.69;27.33;100433.88;4998093;28;20050;-74
2022/08/17 11:22:18;;;;;;;8.35;3.45;;;;;;;34.71;27.22;100428.97;5001361;28;20125;-74
2022/08/17 11:24:46;;;;;;;6.20;3.03;;;;;;;34.47;26.30;100430.31;4997100;28;20118;-75
2022/08/17 11:27:28;;;;;;;6.95;3.03;;;;;;;34.06;26.90;100432.44;4979153;28;20420;-75
2022/08/17 11:30:07;;;;;;;8.48;3.47;;;;;;;34.03;26.94;100426.66;4998554;28;20062;-75
2022/08/17 11:32:48;;;;;;;4.35;3.03;;;;;;;34.00;26.92;100428.00;4979760;28;20073;-74
2022/08/17 11:35:20;;;;;;;6.88;2.90;;;;;;;34.21;27.09;100429.09;4971293;28;20517;-74
2022/08/17 11:38:12;;;;;;;4.50;2.95;;;;;;;34.55;27.15;100421.69;4999774;28;20054;-74
2022/08/17 11:41:06;;;;;;;3.92;3.00;;;;;;;34.89;27.06;100418.78;4973175;28;20054;-74
2022/08/17 11:44:25;;;;;;;3.88;2.75;;;;;;;34.74;26.29;100420.28;4973216;28;20042;-74
2022/08/17 11:53:36;;;;;;;3.42;2.70;;;;;;;36.43;24.25;100417.19;4976310;28;20060;-73
2022/08/17 11:56:03;;;;;;;4.78;2.58;;;;;;;36.56;24.63;100417.75;4996636;28;20450;-73
2022/08/17 11:58:30;;;;;;;6.47;2.90;;;;;;;36.76;24.58;100404.97;4979778;28;20082;-73
2022/08/17 12:00:59;;;;;;;3.72;2.60;;;;;;;37.01;24.17;100404.22;5000202;28;20054;-73
2022/08/17 12:03:30;;;;;;;3.95;2.83;;;;;;;36.97;23.98;100410.53;4996640;28;20493;-74
2022/08/17 12:06:19;;;;;;;3.95;2.75;;;;;;;36.95;23.82;100402.56;4972837;28;20145;-74
2022/08/17 12:08:52;;;;;;;8.70;3.35;;;;;;;36.97;23.66;100410.53;4991185;28;20681;-74
2022/08/17 12:11:36;;;;;;;5.05;2.83;;;;;;;36.98;24.09;100417.69;4968093;28;20058;-73
2022/08/17 12:14:27;;;;;;;4.20;2.83;;;;;;;37.27;23.25;100404.28;4970709;28;20050;-73
2022/08/17 12:17:21;;;;;;;8.23;2.95;;;;;;;37.46;23.19;100410.06;4973612;28;20088;-75
2022/08/17 12:20:17;;;;;;;10.02;3.65;;;;;;;37.65;23.80;100411.19;4978518;28;20149;-74
2022/08/17 12:22:59;;;;;;;6.97;3.13;;;;;;;38.06;22.34;100411.16;4961803;28;20050;-74
2022/08/17 12:25:40;;;;;;;4.13;3.05;;;;;;;37.86;22.25;100416.69;4946190;28;20520;-74
2022/08/17 12:28:33;;;;;;;4.10;2.97;;;;;;;37.50;22.40;100411.19;4978264;28;20043;-74
2022/08/17 12:31:15;;;;;;;3.67;3.00;;;;;;;37.44;23.00;100415.03;4988111;28;20050;-75
2022/08/17 12:33:44;;;;;;;3.78;3.30;;;;;;;37.53;22.56;100416.13;4987986;28;20416;-74